createdAt,value
2023-05-06T00:01:29.225Z,15.90
2023-05-06T00:04:05.995Z,15.90
2023-05-06T00:06:42.485Z,15.90
2023-05-06T00:09:18.381Z,15.90
2023-05-06T00:11:54.244Z,15.90
2023-05-06T00:14:30.163Z,15.80
2023-05-06T00:17:05.984Z,15.80
2023-05-06T00:19:42.267Z,15.80
2023-05-06T00:22:18.104Z,15.80
2023-05-06T00:24:55.004Z,15.80
2023-05-06T00:27:30.829Z,15.80
2023-05-06T00:30:07.634Z,15.70
2023-05-06T00:32:43.526Z,15.70
2023-05-06T00:35:19.450Z,15.70
2023-05-06T00:38:15.601Z,15.70
2023-05-06T00:40:51.894Z,15.70
2023-05-06T00:43:27.915Z,15.60
2023-05-06T00:46:04.390Z,15.50
2023-05-06T00:48:40.650Z,15.50
2023-05-06T00:51:17.013Z,15.40
2023-05-06T00:53:52.936Z,15.40
2023-05-06T00:56:28.824Z,15.40
2023-05-06T00:59:04.891Z,15.50
2023-05-06T01:01:41.153Z,15.40
2023-05-06T01:04:17.094Z,15.40
2023-05-06T01:07:28.833Z,15.40
2023-05-06T01:10:31.166Z,15.30
2023-05-06T01:13:59.317Z,15.30
2023-05-06T01:16:40.149Z,15.30
2023-05-06T01:19:55.113Z,15.40
2023-05-06T01:22:34.170Z,15.30
2023-05-06T01:25:22.465Z,15.40
2023-05-06T01:27:58.255Z,15.30
2023-05-06T01:30:58.309Z,15.30
2023-05-06T01:34:11.078Z,15.30
2023-05-06T01:37:19.323Z,15.30
2023-05-06T01:40:00.470Z,15.20
2023-05-06T01:42:39.108Z,15.20
2023-05-06T01:45:17.123Z,15.10
2023-05-06T01:47:53.686Z,15.10
2023-05-06T01:50:31.257Z,15.10
2023-05-06T01:53:07.105Z,15.10
2023-05-06T01:55:44.581Z,15.10
2023-05-06T01:58:20.462Z,15.00
2023-05-06T02:00:56.418Z,15.00
2023-05-06T02:03:32.365Z,15.00
2023-05-06T02:06:08.367Z,15.00
2023-05-06T02:08:46.946Z,15.10
2023-05-06T02:11:27.410Z,15.10
2023-05-06T02:14:10.057Z,15.10
2023-05-06T02:16:45.921Z,15.20
2023-05-06T02:19:21.967Z,15.20
2023-05-06T02:21:57.991Z,15.20
2023-05-06T02:24:34.920Z,15.20
2023-05-06T02:27:10.845Z,15.20
2023-05-06T02:29:47.112Z,15.20
2023-05-06T02:32:22.954Z,15.20
2023-05-06T02:34:58.799Z,15.20
2023-05-06T02:37:34.700Z,15.20
2023-05-06T02:40:11.438Z,15.10
2023-05-06T02:42:47.346Z,15.10
2023-05-06T02:45:23.254Z,15.10
2023-05-06T02:47:59.107Z,15.20
2023-05-06T02:50:36.257Z,15.10
2023-05-06T02:53:13.254Z,15.10
2023-05-06T02:55:49.112Z,15.10
2023-05-06T02:58:26.169Z,15.10
2023-05-06T03:01:02.240Z,15.10
2023-05-06T03:03:38.132Z,15.00
2023-05-06T03:06:13.979Z,15.00
2023-05-06T03:08:49.781Z,15.00
2023-05-06T03:11:25.743Z,14.90
2023-05-06T03:14:02.003Z,14.90
2023-05-06T03:16:37.967Z,14.90
2023-05-06T03:19:13.942Z,14.90
2023-05-06T03:21:51.830Z,14.90
2023-05-06T03:24:29.568Z,14.90
2023-05-06T03:27:05.419Z,14.90
2023-05-06T03:29:41.720Z,14.90
2023-05-06T03:32:19.616Z,14.90
2023-05-06T03:34:55.582Z,14.90
2023-05-06T03:37:31.826Z,14.90
2023-05-06T03:40:08.933Z,14.90
2023-05-06T03:42:45.966Z,14.90
2023-05-06T03:45:22.753Z,14.90
2023-05-06T03:47:59.029Z,14.80
2023-05-06T03:50:35.588Z,14.80
2023-05-06T03:53:11.717Z,14.80
2023-05-06T03:55:50.414Z,14.70
2023-05-06T03:58:34.689Z,14.60
2023-05-06T04:01:12.046Z,14.60
2023-05-06T04:03:48.071Z,14.50
2023-05-06T04:06:24.099Z,14.50
2023-05-06T04:08:59.957Z,14.40
2023-05-06T04:11:36.462Z,14.40
2023-05-06T04:14:13.832Z,14.30
2023-05-06T04:16:49.664Z,14.30
2023-05-06T04:19:25.523Z,14.20
2023-05-06T04:22:02.313Z,14.20
2023-05-06T04:24:38.547Z,14.20
2023-05-06T04:27:15.189Z,14.20
2023-05-06T04:29:53.386Z,14.10
2023-05-06T04:32:29.453Z,14.10
2023-05-06T04:35:06.247Z,14.10
2023-05-06T04:37:43.692Z,14.00
2023-05-06T04:40:28.481Z,14.00
2023-05-06T04:43:04.592Z,14.00
2023-05-06T04:45:49.084Z,14.00
2023-05-06T04:48:29.132Z,14.00
2023-05-06T04:51:09.237Z,14.00
2023-05-06T04:53:46.667Z,14.00
2023-05-06T04:56:23.061Z,14.00
2023-05-06T04:58:59.450Z,14.00
2023-05-06T05:01:36.585Z,14.00
2023-05-06T05:04:12.504Z,14.10
2023-05-06T05:06:49.275Z,14.10
2023-05-06T05:09:25.807Z,14.10
2023-05-06T05:12:03.008Z,14.10
2023-05-06T05:14:42.632Z,14.10
2023-05-06T05:17:21.157Z,14.20
2023-05-06T05:19:58.868Z,14.20
2023-05-06T05:22:36.525Z,14.20
2023-05-06T05:25:13.059Z,14.30
2023-05-06T05:27:49.581Z,14.30
2023-05-06T05:30:25.686Z,14.40
2023-05-06T05:33:02.509Z,14.40
2023-05-06T05:35:39.527Z,14.40
2023-05-06T05:38:15.527Z,14.50
2023-05-06T05:40:52.427Z,14.50
2023-05-06T05:43:28.382Z,14.50
2023-05-06T05:46:05.203Z,14.60
2023-05-06T05:48:42.389Z,14.60
2023-05-06T05:51:19.806Z,14.70
2023-05-06T05:53:55.785Z,14.80
2023-05-06T05:56:33.540Z,14.80
2023-05-06T05:59:09.519Z,14.90
2023-05-06T06:01:45.441Z,15.00
2023-05-06T06:04:21.438Z,15.00
2023-05-06T06:07:01.921Z,15.20
2023-05-06T06:09:40.237Z,15.20
2023-05-06T06:12:16.191Z,15.30
2023-05-06T06:14:52.120Z,15.30
2023-05-06T06:17:31.331Z,15.40
2023-05-06T06:20:08.415Z,15.40
2023-05-06T06:22:44.719Z,15.50
2023-05-06T06:25:21.517Z,15.60
2023-05-06T06:27:57.533Z,15.60
2023-05-06T06:30:33.609Z,15.60
2023-05-06T06:33:09.559Z,15.70
2023-05-06T06:35:45.485Z,15.80
2023-05-06T06:38:21.424Z,15.80
2023-05-06T06:40:57.307Z,16.00
2023-05-06T06:43:33.229Z,15.90
2023-05-06T06:46:10.933Z,16.00
2023-05-06T06:48:46.882Z,16.20
2023-05-06T06:51:22.873Z,16.30
2023-05-06T06:53:58.985Z,16.20
2023-05-06T06:56:34.940Z,16.20
2023-05-06T06:59:10.957Z,16.40
2023-05-06T07:01:46.777Z,16.40
2023-05-06T07:04:22.746Z,16.40
2023-05-06T07:06:58.768Z,16.40
2023-05-06T07:09:35.730Z,16.40
2023-05-06T07:12:12.110Z,16.30
2023-05-06T07:14:47.983Z,16.30
2023-05-06T07:17:24.103Z,16.20
2023-05-06T07:20:00.774Z,16.20
2023-05-06T07:22:36.977Z,16.20
2023-05-06T07:25:16.348Z,16.10
2023-05-06T07:27:52.645Z,16.10
2023-05-06T07:30:28.678Z,16.10
2023-05-06T07:33:04.751Z,16.30
2023-05-06T07:35:40.590Z,16.40
2023-05-06T07:38:17.499Z,16.60
2023-05-06T07:40:53.328Z,16.70
2023-05-06T07:43:29.116Z,16.70
2023-05-06T07:46:05.188Z,16.80
2023-05-06T07:48:41.086Z,17.10
2023-05-06T07:51:17.692Z,17.50
2023-05-06T07:53:53.545Z,17.80
2023-05-06T07:56:29.379Z,17.80
2023-05-06T07:59:05.998Z,18.00
2023-05-06T08:01:42.074Z,18.30
2023-05-06T08:04:17.929Z,18.30
2023-05-06T08:06:53.785Z,18.50
2023-05-06T08:09:29.601Z,18.50
2023-05-06T08:12:05.860Z,18.70
2023-05-06T08:14:41.910Z,18.40
2023-05-06T08:17:17.791Z,18.30
2023-05-06T08:19:53.603Z,18.40
2023-05-06T08:22:29.432Z,18.40
2023-05-06T08:25:05.773Z,18.40
2023-05-06T08:27:41.633Z,18.60
2023-05-06T08:30:17.476Z,18.70
2023-05-06T08:32:53.369Z,18.80
2023-05-06T08:35:29.205Z,18.70
2023-05-06T08:38:05.031Z,18.50
2023-05-06T08:40:43.905Z,18.50
2023-05-06T08:43:26.189Z,18.40
2023-05-06T08:46:02.165Z,18.50
2023-05-06T08:48:38.562Z,18.50
2023-05-06T08:51:15.429Z,18.70
2023-05-06T08:53:52.065Z,18.80
2023-05-06T08:56:33.177Z,18.90
2023-05-06T08:59:09.338Z,18.90
2023-05-06T09:01:45.344Z,18.90
2023-05-06T09:04:21.360Z,19.00
2023-05-06T09:06:59.148Z,19.00
2023-05-06T09:09:35.544Z,19.20
2023-05-06T09:12:14.980Z,19.30
2023-05-06T09:14:51.508Z,19.60
2023-05-06T09:17:31.795Z,19.70
2023-05-06T09:20:12.071Z,19.70
2023-05-06T09:22:47.977Z,20.00
2023-05-06T09:25:23.922Z,20.30
2023-05-06T09:28:09.326Z,20.20
2023-05-06T09:30:47.773Z,20.40
2023-05-06T09:33:23.753Z,20.70
2023-05-06T09:35:59.577Z,20.90
2023-05-06T09:38:35.375Z,20.90
2023-05-06T09:41:13.184Z,20.90
2023-05-06T09:43:50.980Z,20.80
2023-05-06T09:46:30.310Z,20.90
2023-05-06T09:49:06.582Z,21.20
2023-05-06T09:51:47.786Z,21.40
2023-05-06T09:54:24.871Z,21.40
2023-05-06T09:57:01.257Z,21.50
2023-05-06T09:59:37.733Z,21.50
2023-05-06T10:02:13.703Z,21.20
2023-05-06T10:04:49.957Z,21.10
2023-05-06T10:07:28.774Z,20.90
2023-05-06T10:10:07.389Z,21.30
2023-05-06T10:12:43.972Z,21.50
2023-05-06T10:15:19.839Z,21.50
2023-05-06T10:17:56.176Z,21.40
2023-05-06T10:20:35.920Z,21.40
2023-05-06T10:23:35.531Z,21.50
2023-05-06T10:26:12.805Z,21.70
2023-05-06T10:28:53.149Z,22.00
2023-05-06T10:31:30.807Z,22.20
2023-05-06T10:34:08.004Z,22.10
2023-05-06T10:36:45.079Z,22.30
2023-05-06T10:39:21.504Z,22.20
2023-05-06T10:41:57.410Z,22.50
2023-05-06T10:45:03.873Z,22.70
2023-05-06T10:47:58.109Z,22.40
2023-05-06T10:50:34.099Z,22.50
2023-05-06T10:53:09.922Z,22.70
2023-05-06T10:55:45.963Z,22.80
2023-05-06T10:58:21.857Z,22.50
2023-05-06T11:00:58.065Z,22.30
2023-05-06T11:03:34.455Z,22.30
2023-05-06T11:06:10.433Z,22.40
2023-05-06T11:08:57.140Z,22.70
2023-05-06T11:11:58.581Z,22.90
2023-05-06T11:14:36.994Z,23.00
2023-05-06T11:17:33.802Z,22.90
2023-05-06T11:20:26.576Z,23.00
2023-05-06T11:23:02.413Z,23.00
2023-05-06T11:25:43.144Z,23.10
2023-05-06T11:28:19.016Z,23.20
2023-05-06T11:30:55.800Z,23.30
2023-05-06T11:33:33.976Z,23.10
2023-05-06T11:36:17.099Z,22.90
2023-05-06T11:38:53.255Z,22.80
2023-05-06T11:41:29.225Z,22.80
2023-05-06T11:44:05.048Z,23.00
2023-05-06T11:46:44.074Z,23.30
2023-05-06T11:49:20.012Z,23.50
2023-05-06T11:51:57.128Z,23.70
2023-05-06T11:54:40.054Z,23.90
2023-05-06T11:57:16.145Z,24.10
2023-05-06T11:59:55.189Z,24.40
2023-05-06T12:02:31.112Z,24.20
2023-05-06T12:05:08.245Z,24.20
2023-05-06T12:07:45.320Z,24.30
2023-05-06T12:10:21.450Z,24.50
2023-05-06T12:12:57.446Z,24.20
2023-05-06T12:15:37.080Z,24.20
2023-05-06T12:18:13.302Z,24.20
2023-05-06T12:20:49.156Z,24.00
2023-05-06T12:23:25.101Z,24.10
2023-05-06T12:26:04.014Z,24.40
2023-05-06T12:28:42.513Z,24.60
2023-05-06T12:31:26.158Z,24.80
2023-05-06T12:34:02.192Z,24.90
2023-05-06T12:36:43.360Z,25.10
2023-05-06T12:39:19.168Z,25.30
2023-05-06T12:41:55.676Z,25.70
2023-05-06T12:44:33.332Z,26.00
2023-05-06T12:47:23.730Z,26.10
2023-05-06T12:50:00.542Z,26.20
2023-05-06T12:52:44.006Z,26.40
2023-05-06T12:55:20.474Z,26.70
2023-05-06T12:57:57.762Z,27.10
2023-05-06T13:00:33.921Z,27.30
2023-05-06T13:03:11.452Z,27.30
2023-05-06T13:05:49.953Z,27.40
2023-05-06T13:08:25.802Z,27.40
2023-05-06T13:11:02.453Z,27.20
2023-05-06T13:13:38.261Z,26.90
2023-05-06T13:16:14.063Z,26.90
2023-05-06T13:18:49.897Z,26.80
2023-05-06T13:21:27.065Z,26.90
2023-05-06T13:24:03.992Z,26.90
2023-05-06T13:26:39.895Z,27.00
2023-05-06T13:29:16.365Z,27.20
2023-05-06T13:31:52.423Z,27.30
2023-05-06T13:34:28.292Z,27.50
2023-05-06T13:37:04.135Z,27.90
2023-05-06T13:39:40.232Z,28.00
2023-05-06T13:42:16.145Z,28.30
2023-05-06T13:44:51.968Z,28.40
2023-05-06T13:47:27.869Z,28.60
2023-05-06T13:50:05.688Z,28.70
2023-05-06T13:52:41.593Z,29.00
2023-05-06T13:55:19.285Z,29.10
2023-05-06T13:57:55.510Z,29.10
2023-05-06T14:00:31.593Z,29.10
2023-05-06T14:03:07.722Z,29.00
2023-05-06T14:05:44.214Z,29.10
2023-05-06T14:08:20.049Z,29.20
2023-05-06T14:10:56.071Z,29.20
2023-05-06T14:13:34.123Z,29.10
2023-05-06T14:16:10.011Z,28.90
2023-05-06T14:18:45.938Z,28.60
2023-05-06T14:21:21.760Z,28.50
2023-05-06T14:23:57.729Z,28.40
2023-05-06T14:26:34.138Z,28.30
2023-05-06T14:29:09.984Z,28.40
2023-05-06T14:31:45.999Z,28.10
2023-05-06T14:34:21.858Z,28.20
2023-05-06T14:36:58.859Z,28.40
2023-05-06T14:39:34.686Z,28.80
2023-05-06T14:42:10.668Z,29.20
2023-05-06T14:44:48.718Z,29.30
2023-05-06T14:47:25.187Z,29.60
2023-05-06T14:50:01.076Z,29.80
2023-05-06T14:52:38.670Z,29.60
2023-05-06T14:55:14.566Z,29.70
2023-05-06T14:57:50.853Z,29.50
2023-05-06T15:00:26.723Z,29.50
2023-05-06T15:03:02.702Z,30.00
2023-05-06T15:05:38.618Z,30.00
2023-05-06T15:08:14.481Z,30.00
2023-05-06T15:10:50.709Z,30.00
2023-05-06T15:13:26.539Z,29.90
2023-05-06T15:16:02.374Z,30.20
2023-05-06T15:18:38.237Z,30.50
2023-05-06T15:21:14.240Z,30.40
2023-05-06T15:23:50.065Z,30.50
2023-05-06T15:26:25.947Z,30.70
2023-05-06T15:29:01.826Z,31.10
2023-05-06T15:31:40.944Z,30.80
2023-05-06T15:34:16.877Z,31.30
2023-05-06T15:36:53.762Z,31.60
2023-05-06T15:39:36.559Z,32.00
2023-05-06T15:42:12.383Z,31.90
2023-05-06T15:44:49.229Z,31.90
2023-05-06T15:47:25.137Z,32.00
2023-05-06T15:50:01.559Z,31.80
2023-05-06T15:52:37.688Z,31.80
2023-05-06T15:55:13.767Z,32.10
2023-05-06T15:57:49.806Z,31.90
2023-05-06T16:00:25.678Z,31.70
2023-05-06T16:03:01.853Z,31.80
2023-05-06T16:05:38.141Z,31.60
2023-05-06T16:08:13.936Z,31.80
2023-05-06T16:10:50.817Z,31.80
2023-05-06T16:13:26.709Z,31.60
2023-05-06T16:16:02.652Z,31.00
2023-05-06T16:18:38.556Z,30.70
2023-05-06T16:21:14.420Z,30.40
2023-05-06T16:23:50.754Z,30.10
2023-05-06T16:26:26.600Z,30.00
2023-05-06T16:29:02.438Z,29.90
2023-05-06T16:31:38.410Z,29.80
2023-05-06T16:34:14.819Z,29.70
2023-05-06T16:36:50.756Z,29.60
2023-05-06T16:39:28.197Z,29.60
2023-05-06T16:42:04.195Z,29.50
2023-05-06T16:44:40.057Z,29.30
2023-05-06T16:47:16.022Z,29.10
2023-05-06T16:49:52.542Z,29.00
2023-05-06T16:52:30.132Z,28.90
2023-05-06T16:55:07.213Z,29.00
2023-05-06T16:57:43.086Z,29.00
2023-05-06T17:00:19.329Z,28.70
2023-05-06T17:02:55.738Z,28.60
2023-05-06T17:05:31.873Z,28.50
2023-05-06T17:08:08.286Z,28.30
2023-05-06T17:10:44.278Z,28.10
2023-05-06T17:13:20.362Z,27.90
2023-05-06T17:15:56.198Z,27.80
2023-05-06T17:18:32.195Z,27.70
2023-05-06T17:21:08.909Z,27.60
2023-05-06T17:23:44.713Z,27.50
2023-05-06T17:26:21.273Z,27.30
2023-05-06T17:28:57.083Z,27.10
2023-05-06T17:31:33.003Z,27.00
2023-05-06T17:34:08.812Z,26.80
2023-05-06T17:36:44.671Z,26.60
2023-05-06T17:39:21.255Z,26.30
2023-05-06T17:41:57.100Z,26.20
2023-05-06T17:44:35.172Z,26.00
2023-05-06T17:47:11.138Z,25.80
2023-05-06T17:49:46.936Z,25.70
2023-05-06T17:52:26.481Z,25.50
2023-05-06T17:55:16.434Z,25.40
2023-05-06T17:57:53.439Z,25.30
2023-05-06T18:00:29.320Z,25.20
2023-05-06T18:03:05.680Z,25.00
2023-05-06T18:05:41.563Z,24.90
2023-05-06T18:08:17.617Z,24.70
2023-05-06T18:10:53.701Z,24.60
2023-05-06T18:13:29.552Z,24.50
2023-05-06T18:16:06.054Z,24.30
2023-05-06T18:18:42.862Z,24.20
2023-05-06T18:21:18.770Z,24.10
2023-05-06T18:24:02.003Z,23.90
2023-05-06T18:26:46.547Z,23.80
2023-05-06T18:29:22.544Z,23.60
2023-05-06T18:31:59.088Z,23.50
2023-05-06T18:34:34.923Z,23.40
2023-05-06T18:37:10.854Z,23.20
2023-05-06T18:39:46.658Z,23.10
2023-05-06T18:42:22.978Z,23.00
2023-05-06T18:44:59.367Z,22.90
2023-05-06T18:47:36.904Z,22.70
2023-05-06T18:50:12.820Z,22.60
2023-05-06T18:52:48.752Z,22.50
2023-05-06T18:55:24.635Z,22.40
2023-05-06T18:58:04.694Z,22.30
2023-05-06T19:00:40.927Z,22.20
2023-05-06T19:03:16.873Z,22.20
2023-05-06T19:05:52.786Z,22.10
2023-05-06T19:08:29.787Z,22.00
2023-05-06T19:11:05.701Z,22.00
2023-05-06T19:13:45.058Z,21.90
2023-05-06T19:16:21.080Z,21.80
2023-05-06T19:18:56.911Z,21.80
2023-05-06T19:21:34.235Z,21.70
2023-05-06T19:24:10.063Z,21.60
2023-05-06T19:26:46.213Z,21.60
2023-05-06T19:29:22.013Z,21.50
2023-05-06T19:31:58.501Z,21.40
2023-05-06T19:34:34.279Z,21.40
2023-05-06T19:37:11.686Z,21.30
2023-05-06T19:39:49.481Z,21.30
2023-05-06T19:42:25.327Z,21.20
2023-05-06T19:45:08.157Z,21.10
2023-05-06T19:47:44.204Z,21.10
2023-05-06T19:50:20.462Z,21.00
2023-05-06T19:52:57.391Z,21.00
2023-05-06T19:55:37.928Z,20.90
2023-05-06T19:58:14.234Z,20.80
2023-05-06T20:00:53.842Z,20.80
2023-05-06T20:03:36.467Z,20.70
2023-05-06T20:06:21.434Z,20.60
2023-05-06T20:09:04.549Z,20.60
2023-05-06T20:11:44.929Z,20.50
2023-05-06T20:14:21.348Z,20.40
2023-05-06T20:16:57.921Z,20.40
2023-05-06T20:19:33.756Z,20.30
2023-05-06T20:22:09.575Z,20.20
2023-05-06T20:24:45.679Z,20.10
2023-05-06T20:27:21.481Z,20.10
2023-05-06T20:29:57.344Z,20.00
2023-05-06T20:32:33.665Z,20.00
2023-05-06T20:35:10.125Z,19.90
2023-05-06T20:37:46.802Z,19.90
2023-05-06T20:40:22.693Z,19.80
2023-05-06T20:42:58.476Z,19.70
2023-05-06T20:45:34.552Z,19.70
2023-05-06T20:48:11.683Z,19.60
2023-05-06T20:50:48.981Z,19.50
2023-05-06T20:53:26.642Z,19.50
2023-05-06T20:56:02.468Z,19.40
2023-05-06T20:58:38.281Z,19.30
2023-05-06T21:01:16.400Z,19.20
2023-05-06T21:03:52.299Z,19.20
2023-05-06T21:06:28.142Z,19.10
2023-05-06T21:09:04.065Z,19.00
2023-05-06T21:11:39.903Z,19.00
2023-05-06T21:14:15.713Z,18.90
2023-05-06T21:16:52.162Z,18.90
2023-05-06T21:19:28.030Z,18.80
2023-05-06T21:22:03.825Z,18.70
2023-05-06T21:24:39.654Z,18.70
2023-05-06T21:27:16.477Z,18.60
2023-05-06T21:29:52.323Z,18.50
2023-05-06T21:32:32.770Z,18.50
2023-05-06T21:35:09.039Z,18.40
2023-05-06T21:37:48.457Z,18.30
2023-05-06T21:40:24.350Z,18.20
2023-05-06T21:43:00.225Z,18.10
2023-05-06T21:45:36.366Z,18.00
2023-05-06T21:48:12.217Z,18.00
2023-05-06T21:50:48.055Z,17.90
2023-05-06T21:53:24.169Z,17.90
2023-05-06T21:55:59.988Z,17.80
2023-05-06T21:58:36.007Z,17.80
2023-05-06T22:01:11.912Z,17.70
2023-05-06T22:03:48.718Z,17.60
2023-05-06T22:06:24.601Z,17.60
2023-05-06T22:09:00.532Z,17.50
2023-05-06T22:11:38.107Z,17.50
2023-05-06T22:14:14.857Z,17.40
2023-05-06T22:16:50.700Z,17.40
2023-05-06T22:19:26.904Z,17.30
2023-05-06T22:22:02.720Z,17.20
2023-05-06T22:24:39.694Z,17.20
2023-05-06T22:27:15.592Z,17.10
2023-05-06T22:29:51.428Z,17.10
2023-05-06T22:32:27.373Z,17.10
2023-05-06T22:35:04.025Z,17.00
2023-05-06T22:37:39.817Z,17.00
2023-05-06T22:40:15.659Z,16.90
2023-05-06T22:42:52.631Z,16.80
2023-05-06T22:45:28.477Z,16.80
2023-05-06T22:48:05.112Z,16.70
2023-05-06T22:50:41.055Z,16.60
2023-05-06T22:53:16.844Z,16.50
2023-05-06T22:55:52.667Z,16.50
2023-05-06T22:58:28.512Z,16.40
2023-05-06T23:01:04.694Z,16.40
2023-05-06T23:03:40.599Z,16.30
2023-05-06T23:06:16.408Z,16.20
2023-05-06T23:08:52.305Z,16.20
2023-05-06T23:11:28.143Z,16.10
2023-05-06T23:14:04.825Z,16.10
2023-05-06T23:16:40.687Z,16.00
2023-05-06T23:19:16.990Z,16.00
2023-05-06T23:21:53.295Z,16.00
2023-05-06T23:24:29.145Z,16.00
2023-05-06T23:27:04.955Z,15.90
2023-05-06T23:29:41.172Z,15.90
2023-05-06T23:32:17.158Z,15.80
2023-05-06T23:34:52.998Z,15.80
2023-05-06T23:37:29.805Z,15.70
2023-05-06T23:40:07.739Z,15.70
2023-05-06T23:42:43.702Z,15.70
2023-05-06T23:45:20.299Z,15.70
2023-05-06T23:47:56.935Z,15.70
2023-05-06T23:50:32.897Z,15.70
2023-05-06T23:53:08.700Z,15.60
2023-05-06T23:55:44.536Z,15.60
2023-05-06T23:58:20.592Z,15.70
